PWSweather.com
Personal Weather Stations
Station Observations
WA6MVG
Nw Lake Tapps, Auburn, WA 98092

Nw Lake TappsAuburn, WA 98092

Lat: 47.250153, Lon: -122.195483

Elevation: 500

Station Type: WeatherFlow

http://www.wa6mvg.com/wxindex.php

Latest ConditionsUpdated 10:20:00 AM PST Sunday, Jan 26, 2020
Currently Today's Max Today's Min Today's Average
Temperature 49.1°F9.5°C 49.1°F9.5°C 44.6°F7.0°C 46.1°F7.8°C
Dew Point 46.3°F7.9°C 46.7°F8.2°C 43.6°F6.4°C 45.5°F7.5°C
Winds Calm Calm 3.5 mph -5.6 kmh - - 0.5 mph 0.8 kmh
Wind Gusts 9.2 mph14.8 kmh 9.2 mph14.8 kmh - -
Humidity 90% 99% 90% 98%
Pressure 29.98 in1015.2 mb 29.98 in1015.2 mb 29.70 in1005.8 mb -
Precipitation - 0.17 in4.3 mm - -
Hour Temp Dew Point Humidity Winds Wind Gusts Pressure Precip Precip Rate Daily Precip Total
10:20 AM 49.1°F9.5°C 46.3°F7.9°C 90% Calm Calm 9.2 mph14.8 kmh 29.98 in1015.2 mb - 0.00 in0.0 mm 0.17 in4.3 mm
10:15 AM 48.9°F9.4°C 46.1°F7.8°C 90% Calm Calm 2.3 mph3.7 kmh 29.97 in1014.9 mb - 0.00 in0.0 mm 0.17 in4.3 mm
10:10 AM 48.7°F9.3°C 45.9°F7.7°C 90% 1.2 mph NE1.9 kmh NE 5.8 mph9.3 kmh 29.97 in1014.9 mb - 0.00 in0.0 mm 0.17 in4.3 mm
10:00 AM 48.7°F9.3°C 45.9°F7.7°C 90% Calm Calm 5.8 mph9.3 kmh 29.97 in1014.9 mb - 0.00 in0.0 mm 0.17 in4.3 mm
09:55 AM 48.7°F9.3°C 46.2°F7.9°C 91% 1.2 mph 1.9 kmh -- 29.96 in1014.6 mb - 0.00 in0.0 mm 0.17 in4.3 mm
09:50 AM 48.6°F9.2°C 45.8°F7.7°C 90% 1.2 mph N1.9 kmh N -- 29.96 in1014.6 mb - 0.00 in0.0 mm 0.17 in4.3 mm
09:45 AM 48.7°F9.3°C 46.5°F8.1°C 92% 1.2 mph NW1.9 kmh NW 3.5 mph5.6 kmh 29.96 in1014.6 mb - 0.00 in0.0 mm 0.17 in4.3 mm
09:40 AM 48.7°F9.3°C 46.5°F8.1°C 92% Calm Calm 2.3 mph3.7 kmh 29.96 in1014.6 mb - 0.00 in0.0 mm 0.17 in4.3 mm
09:35 AM 48.5°F9.2°C 46.2°F7.9°C 92% 1.2 mph N1.9 kmh N 2.3 mph3.7 kmh 29.95 in1014.2 mb - 0.00 in0.0 mm 0.17 in4.3 mm
09:30 AM 48.3°F9.1°C 46.3°F7.9°C 93% Calm Calm 2.3 mph3.7 kmh 29.95 in1014.2 mb - 0.00 in0.0 mm 0.17 in4.3 mm
09:25 AM 48.1°F8.9°C 46.5°F8.1°C 94% Calm Calm 3.5 mph5.6 kmh 29.95 in1014.2 mb - 0.00 in0.0 mm 0.17 in4.3 mm
09:20 AM 47.9°F8.8°C 46.3°F7.9°C 94% 1.2 mph N1.9 kmh N 3.5 mph5.6 kmh 29.94 in1013.9 mb - 0.00 in0.0 mm 0.17 in4.3 mm
09:15 AM 47.8°F8.8°C 46.5°F8.1°C 95% Calm Calm 3.5 mph5.6 kmh 29.94 in1013.9 mb - 0.00 in0.0 mm 0.17 in4.3 mm
09:10 AM 47.7°F8.7°C 46.3°F7.9°C 95% Calm Calm 3.5 mph5.6 kmh 29.94 in1013.9 mb - 0.00 in0.0 mm 0.17 in4.3 mm
09:00 AM 47.3°F8.5°C 46.2°F7.9°C 96% 2.3 mph NW3.7 kmh NW 3.5 mph5.6 kmh 29.93 in1013.5 mb - 0.00 in0.0 mm 0.17 in4.3 mm
08:55 AM 47.0°F8.3°C 46.2°F7.9°C 97% Calm Calm 2.3 mph3.7 kmh 29.93 in1013.5 mb - 0.00 in0.0 mm 0.17 in4.3 mm
08:50 AM 46.9°F8.3°C 46.1°F7.8°C 97% 1.2 mph NNW1.9 kmh NNW 2.3 mph3.7 kmh 29.92 in1013.2 mb - 0.00 in0.0 mm 0.17 in4.3 mm
08:45 AM 46.8°F8.2°C 46.0°F7.8°C 97% 1.2 mph N1.9 kmh N 3.5 mph5.6 kmh 29.92 in1013.2 mb - 0.00 in0.0 mm 0.17 in4.3 mm
08:40 AM 46.8°F8.2°C 46.2°F7.9°C 98% 2.3 mph NNW3.7 kmh NNW 6.9 mph11.1 kmh 29.92 in1013.2 mb - 0.00 in0.0 mm 0.17 in4.3 mm
08:35 AM 46.4°F8.0°C 45.9°F7.7°C 98% 1.2 mph N1.9 kmh N 2.3 mph3.7 kmh 29.91 in1012.9 mb - 0.00 in0.0 mm 0.17 in4.3 mm
08:30 AM 46.4°F8.0°C 45.9°F7.7°C 98% Calm Calm 5.8 mph9.3 kmh 29.91 in1012.9 mb - 0.00 in0.0 mm 0.17 in4.3 mm
08:25 AM 46.3°F7.9°C 45.7°F7.6°C 98% 1.2 mph SW1.9 kmh SW 4.6 mph7.4 kmh 29.91 in1012.9 mb - 0.00 in0.0 mm 0.17 in4.3 mm
08:20 AM 46.3°F7.9°C 46.0°F7.8°C 99% 1.2 mph N1.9 kmh N 2.3 mph3.7 kmh 29.91 in1012.9 mb - 0.00 in0.0 mm 0.17 in4.3 mm
08:15 AM 46.3°F7.9°C 46.0°F7.8°C 99% Calm Calm 3.5 mph5.6 kmh 29.91 in1012.9 mb - 0.00 in0.0 mm 0.17 in4.3 mm
08:10 AM 46.2°F7.9°C 46.0°F7.8°C 99% Calm Calm 4.6 mph7.4 kmh 29.90 in1012.5 mb - 0.00 in0.0 mm 0.17 in4.3 mm
08:00 AM 46.0°F7.8°C 45.8°F7.7°C 99% Calm Calm 5.8 mph9.3 kmh 29.90 in1012.5 mb - 0.00 in0.0 mm 0.17 in4.3 mm
07:55 AM 46.2°F7.9°C 45.6°F7.6°C 98% 1.2 mph N1.9 kmh N 3.5 mph5.6 kmh 29.89 in1012.2 mb - 0.00 in0.0 mm 0.17 in4.3 mm
07:50 AM 46.2°F7.9°C 45.6°F7.6°C 98% Calm Calm 5.8 mph9.3 kmh 29.89 in1012.2 mb - 0.00 in0.0 mm 0.17 in4.3 mm
07:45 AM 46.0°F7.8°C 45.5°F7.5°C 98% 1.2 mph N1.9 kmh N 1.2 mph1.9 kmh 29.89 in1012.2 mb - 0.00 in0.0 mm 0.17 in4.3 mm
07:40 AM 46.2°F7.9°C 45.7°F7.6°C 98% Calm Calm 2.3 mph3.7 kmh 29.88 in1011.9 mb - 0.00 in0.0 mm 0.17 in4.3 mm
07:35 AM 46.3°F7.9°C 45.8°F7.7°C 98% 1.2 mph NW1.9 kmh NW 3.5 mph5.6 kmh 29.88 in1011.9 mb - 0.00 in0.0 mm 0.17 in4.3 mm
07:30 AM 46.2°F7.9°C 45.7°F7.6°C 98% Calm Calm 4.6 mph7.4 kmh 29.88 in1011.9 mb - 0.00 in0.0 mm 0.17 in4.3 mm
07:25 AM 46.4°F8.0°C 46.1°F7.8°C 99% Calm Calm 3.5 mph5.6 kmh 29.88 in1011.9 mb - 0.00 in0.0 mm 0.17 in4.3 mm
07:20 AM 46.4°F8.0°C 46.1°F7.8°C 99% Calm Calm 3.5 mph5.6 kmh 29.88 in1011.9 mb - 0.00 in0.0 mm 0.17 in4.3 mm
07:15 AM 46.5°F8.1°C 46.3°F7.9°C 99% Calm Calm 2.3 mph3.7 kmh 29.87 in1011.5 mb - 0.00 in0.0 mm 0.17 in4.3 mm
07:10 AM 46.4°F8.0°C 46.1°F7.8°C 99% 1.2 mph N1.9 kmh N -- 29.87 in1011.5 mb - 0.00 in0.0 mm 0.17 in4.3 mm
07:00 AM 46.4°F8.0°C 46.1°F7.8°C 99% Calm Calm 1.2 mph1.9 kmh 29.87 in1011.5 mb - 0.00 in0.0 mm 0.17 in4.3 mm
06:55 AM 46.3°F7.9°C 46.1°F7.8°C 99% Calm Calm 1.2 mph1.9 kmh 29.87 in1011.5 mb - 0.00 in0.0 mm 0.17 in4.3 mm
06:50 AM 46.2°F7.9°C 46.0°F7.8°C 99% Calm Calm 4.6 mph7.4 kmh 29.87 in1011.5 mb - 0.00 in0.0 mm 0.17 in4.3 mm
06:45 AM 46.5°F8.1°C 46.3°F7.9°C 99% Calm Calm 2.3 mph3.7 kmh 29.87 in1011.5 mb - 0.00 in0.0 mm 0.17 in4.3 mm
06:40 AM 46.5°F8.1°C 46.3°F7.9°C 99% Calm Calm 3.5 mph5.6 kmh 29.87 in1011.5 mb - 0.00 in0.0 mm 0.17 in4.3 mm
06:35 AM 46.6°F8.1°C 46.3°F7.9°C 99% Calm Calm 3.5 mph5.6 kmh 29.86 in1011.2 mb - 0.00 in0.0 mm 0.17 in4.3 mm
06:30 AM 46.8°F8.2°C 46.5°F8.1°C 99% 1.2 mph N1.9 kmh N 3.5 mph5.6 kmh 29.86 in1011.2 mb - 0.00 in0.0 mm 0.17 in4.3 mm
06:25 AM 46.9°F8.3°C 46.7°F8.2°C 99% 1.2 mph 1.9 kmh -- 29.86 in1011.2 mb - 0.00 in0.0 mm 0.17 in4.3 mm
06:20 AM 46.8°F8.2°C 46.5°F8.1°C 99% 2.3 mph NNE3.7 kmh NNE 4.6 mph7.4 kmh 29.85 in1010.8 mb - 0.00 in0.0 mm 0.17 in4.3 mm
06:15 AM 46.9°F8.3°C 46.7°F8.2°C 99% Calm Calm 4.6 mph7.4 kmh 29.85 in1010.8 mb - 0.01 in0.3 mm 0.17 in4.3 mm
06:10 AM 46.8°F8.2°C 46.5°F8.1°C 99% Calm Calm 2.3 mph3.7 kmh 29.85 in1010.8 mb - 0.02 in0.5 mm 0.17 in4.3 mm
06:00 AM 46.9°F8.3°C 46.7°F8.2°C 99% 1.2 mph 1.9 kmh -- 29.85 in1010.8 mb - 0.02 in0.5 mm 0.17 in4.3 mm
05:50 AM 46.8°F8.2°C 46.5°F8.1°C 99% 1.2 mph N1.9 kmh N 6.9 mph11.1 kmh 29.84 in1010.5 mb - 0.02 in0.5 mm 0.17 in4.3 mm
05:45 AM 46.8°F8.2°C 46.5°F8.1°C 99% 1.2 mph NE1.9 kmh NE 3.5 mph5.6 kmh 29.84 in1010.5 mb - 0.03 in0.8 mm 0.17 in4.3 mm
05:40 AM 46.8°F8.2°C 46.5°F8.1°C 99% 1.2 mph N1.9 kmh N 3.5 mph5.6 kmh 29.83 in1010.2 mb - 0.03 in0.8 mm 0.17 in4.3 mm
05:35 AM 46.6°F8.1°C 46.3°F7.9°C 99% Calm Calm 1.2 mph1.9 kmh 29.83 in1010.2 mb - 0.03 in0.8 mm 0.17 in4.3 mm
05:30 AM 46.6°F8.1°C 46.3°F7.9°C 99% 2.3 mph N3.7 kmh N 3.5 mph5.6 kmh 29.83 in1010.2 mb - 0.03 in0.8 mm 0.17 in4.3 mm
05:25 AM 46.5°F8.1°C 46.2°F7.9°C 99% 1.2 mph N1.9 kmh N 4.6 mph7.4 kmh 29.82 in1009.8 mb - 0.03 in0.8 mm 0.17 in4.3 mm
05:20 AM 46.0°F7.8°C 45.8°F7.7°C 99% 1.2 mph N1.9 kmh N 8.1 mph13.0 kmh 29.82 in1009.8 mb - 0.03 in0.8 mm 0.17 in4.3 mm
05:15 AM 46.0°F7.8°C 45.8°F7.7°C 99% Calm Calm 6.9 mph11.1 kmh 29.82 in1009.8 mb - 0.02 in0.5 mm 0.16 in4.1 mm
05:10 AM 45.8°F7.7°C 45.5°F7.5°C 99% 1.2 mph N1.9 kmh N 2.3 mph3.7 kmh 29.82 in1009.8 mb - 0.02 in0.5 mm 0.16 in4.1 mm
05:00 AM 45.9°F7.7°C 45.6°F7.6°C 99% Calm Calm -- 29.81 in1009.5 mb - 0.03 in0.8 mm 0.16 in4.1 mm
04:55 AM 45.6°F7.6°C 45.3°F7.4°C 99% Calm Calm -- 29.81 in1009.5 mb - 0.02 in0.5 mm 0.15 in3.8 mm
04:50 AM 45.7°F7.6°C 45.4°F7.4°C 99% Calm Calm 1.2 mph1.9 kmh 29.80 in1009.1 mb - 0.02 in0.5 mm 0.15 in3.8 mm
04:45 AM 45.7°F7.6°C 45.4°F7.4°C 99% Calm Calm -- 29.80 in1009.1 mb - 0.01 in0.3 mm 0.14 in3.6 mm
04:40 AM 45.6°F7.6°C 45.3°F7.4°C 99% Calm Calm -- 29.80 in1009.1 mb - 0.01 in0.3 mm 0.14 in3.6 mm
04:35 AM 45.6°F7.6°C 45.3°F7.4°C 99% Calm Calm -- 29.80 in1009.1 mb - 0.01 in0.3 mm 0.14 in3.6 mm
04:30 AM 45.5°F7.5°C 45.2°F7.3°C 99% Calm Calm -- 29.80 in1009.1 mb - 0.01 in0.3 mm 0.14 in3.6 mm
04:25 AM 45.7°F7.6°C 45.4°F7.4°C 99% Calm Calm -- 29.80 in1009.1 mb - 0.01 in0.3 mm 0.14 in3.6 mm
04:20 AM 45.5°F7.5°C 45.2°F7.3°C 99% Calm Calm -- 29.79 in1008.8 mb - 0.01 in0.3 mm 0.14 in3.6 mm
04:15 AM 45.5°F7.5°C 45.2°F7.3°C 99% Calm Calm -- 29.79 in1008.8 mb - 0.01 in0.3 mm 0.14 in3.6 mm
04:10 AM 45.5°F7.5°C 45.2°F7.3°C 99% Calm Calm -- 29.79 in1008.8 mb - 0.02 in0.5 mm 0.14 in3.6 mm
04:00 AM 45.5°F7.5°C 45.2°F7.3°C 99% Calm Calm -- 29.78 in1008.5 mb - 0.02 in0.5 mm 0.13 in3.3 mm
03:55 AM 45.2°F7.3°C 45.0°F7.2°C 99% Calm Calm -- 29.78 in1008.5 mb - 0.02 in0.5 mm 0.13 in3.3 mm
03:50 AM 45.3°F7.4°C 45.1°F7.3°C 99% Calm Calm -- 29.77 in1008.1 mb - 0.02 in0.5 mm 0.13 in3.3 mm
03:45 AM 45.2°F7.3°C 45.0°F7.2°C 99% Calm Calm -- 29.78 in1008.5 mb - 0.03 in0.8 mm 0.13 in3.3 mm
03:40 AM 45.3°F7.4°C 45.1°F7.3°C 99% 1.2 mph N1.9 kmh N 1.2 mph1.9 kmh 29.77 in1008.1 mb - 0.03 in0.8 mm 0.13 in3.3 mm
03:35 AM 45.2°F7.3°C 45.0°F7.2°C 99% Calm Calm -- 29.77 in1008.1 mb - 0.03 in0.8 mm 0.13 in3.3 mm
03:30 AM 45.4°F7.4°C 45.2°F7.3°C 99% Calm Calm -- 29.77 in1008.1 mb - 0.04 in1.0 mm 0.13 in3.3 mm
03:25 AM 45.1°F7.3°C 44.9°F7.2°C 99% Calm Calm -- 29.77 in1008.1 mb - 0.04 in1.0 mm 0.13 in3.3 mm
03:20 AM 45.2°F7.3°C 45.0°F7.2°C 99% Calm Calm -- 29.77 in1008.1 mb - 0.05 in1.3 mm 0.13 in3.3 mm
03:15 AM 45.2°F7.3°C 45.0°F7.2°C 99% Calm Calm -- 29.77 in1008.1 mb - 0.06 in1.5 mm 0.13 in3.3 mm
03:10 AM 45.2°F7.3°C 45.0°F7.2°C 99% Calm Calm -- 29.76 in1007.8 mb - 0.06 in1.5 mm 0.12 in3.0 mm
03:00 AM 45.4°F7.4°C 45.2°F7.3°C 99% 2.3 mph NW3.7 kmh NW 3.5 mph5.6 kmh 29.77 in1008.1 mb - 0.06 in1.5 mm 0.11 in2.8 mm
02:55 AM 45.1°F7.3°C 44.9°F7.2°C 99% 1.2 mph WSW1.9 kmh WSW 5.8 mph9.3 kmh 29.76 in1007.8 mb - 0.06 in1.5 mm 0.11 in2.8 mm
02:50 AM 45.1°F7.3°C 44.9°F7.2°C 99% Calm Calm -- 29.75 in1007.5 mb - 0.06 in1.5 mm 0.11 in2.8 mm
02:45 AM 45.2°F7.3°C 45.0°F7.2°C 99% Calm Calm 2.3 mph3.7 kmh 29.74 in1007.1 mb - 0.07 in1.8 mm 0.10 in2.5 mm
02:40 AM 45.1°F7.3°C 44.9°F7.2°C 99% Calm Calm -- 29.74 in1007.1 mb - 0.07 in1.8 mm 0.10 in2.5 mm
02:35 AM 45.3°F7.4°C 45.1°F7.3°C 99% Calm Calm -- 29.73 in1006.8 mb - 0.07 in1.8 mm 0.10 in2.5 mm
02:30 AM 45.3°F7.4°C 45.1°F7.3°C 99% Calm Calm -- 29.73 in1006.8 mb - 0.07 in1.8 mm 0.09 in2.3 mm
02:25 AM 45.2°F7.3°C 45.0°F7.2°C 99% Calm Calm -- 29.72 in1006.4 mb - 0.07 in1.8 mm 0.09 in2.3 mm
02:20 AM 45.1°F7.3°C 44.9°F7.2°C 99% Calm Calm -- 29.72 in1006.4 mb - 0.06 in1.5 mm 0.08 in2.0 mm
02:15 AM 45.1°F7.3°C 44.9°F7.2°C 99% Calm Calm 2.3 mph3.7 kmh 29.71 in1006.1 mb - 0.05 in1.3 mm 0.07 in1.8 mm
02:10 AM 45.0°F7.2°C 44.8°F7.1°C 99% Calm Calm -- 29.71 in1006.1 mb - 0.05 in1.3 mm 0.07 in1.8 mm
02:00 AM 45.0°F7.2°C 44.7°F7.1°C 99% Calm Calm -- 29.71 in1006.1 mb - 0.04 in1.0 mm 0.05 in1.3 mm
01:55 AM 44.8°F7.1°C 44.5°F6.9°C 99% 1.2 mph N1.9 kmh N 3.5 mph5.6 kmh 29.71 in1006.1 mb - 0.04 in1.0 mm 0.05 in1.3 mm
01:50 AM 44.9°F7.2°C 44.6°F7.0°C 99% Calm Calm -- 29.70 in1005.8 mb - 0.03 in0.8 mm 0.04 in1.0 mm
01:45 AM 45.0°F7.2°C 44.7°F7.1°C 99% Calm Calm -- 29.70 in1005.8 mb - 0.03 in0.8 mm 0.04 in1.0 mm
01:40 AM 44.9°F7.2°C 44.6°F7.0°C 99% 2.3 mph 3.7 kmh -- 29.71 in1006.1 mb - 0.03 in0.8 mm 0.03 in0.8 mm
01:35 AM 44.8°F7.1°C 44.5°F6.9°C 99% Calm Calm -- 29.70 in1005.8 mb - 0.03 in0.8 mm 0.03 in0.8 mm
01:30 AM 44.9°F7.2°C 44.6°F7.0°C 99% Calm Calm -- 29.70 in1005.8 mb - 0.02 in0.5 mm 0.03 in0.8 mm
01:25 AM 44.8°F7.1°C 44.5°F6.9°C 99% Calm Calm -- 29.71 in1006.1 mb - 0.02 in0.5 mm 0.02 in0.5 mm
01:20 AM 44.8°F7.1°C 44.5°F6.9°C 99% Calm Calm -- 29.71 in1006.1 mb - 0.02 in0.5 mm 0.02 in0.5 mm
01:15 AM 44.8°F7.1°C 44.5°F6.9°C 99% 2.3 mph N3.7 kmh N 3.5 mph5.6 kmh 29.72 in1006.4 mb - 0.02 in0.5 mm 0.02 in0.5 mm
01:10 AM 44.8°F7.1°C 44.5°F6.9°C 99% 2.3 mph NNE3.7 kmh NNE 3.5 mph5.6 kmh 29.72 in1006.4 mb - 0.02 in0.5 mm 0.02 in0.5 mm
01:00 AM 44.8°F7.1°C 44.5°F6.9°C 99% Calm Calm 2.3 mph3.7 kmh 29.73 in1006.8 mb - 0.02 in0.5 mm 0.02 in0.5 mm
12:55 AM 45.0°F7.2°C 44.4°F6.9°C 98% Calm Calm 2.3 mph3.7 kmh 29.73 in1006.8 mb - 0.01 in0.3 mm 0.01 in0.3 mm
12:50 AM 44.7°F7.1°C 44.2°F6.8°C 98% Calm Calm 2.3 mph3.7 kmh 29.74 in1007.1 mb - 0.01 in0.3 mm 0.01 in0.3 mm
12:45 AM 44.7°F7.1°C 44.2°F6.8°C 98% Calm Calm -- 29.74 in1007.1 mb - 0.01 in0.3 mm 0.01 in0.3 mm
12:40 AM 45.0°F7.2°C 44.2°F6.8°C 97% 1.2 mph NNW1.9 kmh NNW 2.3 mph3.7 kmh 29.75 in1007.5 mb - 0.00 in0.0 mm 0.01 in0.3 mm
12:35 AM 44.7°F7.1°C 43.9°F6.6°C 97% 1.2 mph N1.9 kmh N 3.5 mph5.6 kmh 29.76 in1007.8 mb - 0.00 in0.0 mm 0.00 in0.0 mm
12:30 AM 44.8°F7.1°C 44.0°F6.7°C 97% 1.2 mph WSW1.9 kmh WSW 3.5 mph5.6 kmh 29.76 in1007.8 mb - 0.00 in0.0 mm 0.00 in0.0 mm
12:25 AM 44.6°F7.0°C 43.8°F6.6°C 97% 3.5 mph N5.6 kmh N 4.6 mph7.4 kmh 29.75 in1007.5 mb - 0.00 in0.0 mm 0.00 in0.0 mm
12:20 AM 44.8°F7.1°C 44.0°F6.7°C 97% Calm Calm -- 29.75 in1007.5 mb - 0.00 in0.0 mm 0.00 in0.0 mm
12:15 AM 44.8°F7.1°C 44.0°F6.7°C 97% 2.3 mph N3.7 kmh N 3.5 mph5.6 kmh 29.73 in1006.8 mb - 0.00 in0.0 mm 0.00 in0.0 mm
12:10 AM 44.6°F7.0°C 43.8°F6.6°C 97% Calm Calm 3.5 mph5.6 kmh 29.75 in1007.5 mb - 0.00 in0.0 mm 0.00 in0.0 mm
12:00 AM 44.7°F7.1°C 43.6°F6.4°C 96% Calm Calm 2.3 mph3.7 kmh 29.75 in1007.5 mb - 0.00 in0.0 mm 0.00 in0.0 mm